1859 NOT_NAMED (1859060S08057)


IBTrACS version v04r00. Visit IBTrACS website for data access.
Please direct all questions to the IBTrACS Q and A forum

Storm track - Intensity - Wind Radii - Intensity Data - Source Data - All data

Summary Information

Storm ID 1859060S08057
Start Mar 1 06Z
End Mar 8 06Z
ATCF IDs
Track status Best track data.

Storm track plot

Map of storm track

Intensity plots

No Intensity information for this storm


Radial wind information

No radial wind information for this storm


Position and Intensity Table

BASIN ISO_TIME_________ NATURE LAT LON
degrees north degrees east
SI 1859-03-01 06:00:00 NR -8.20 56.60
SI 09:00:00 NR -8.39 56.56
SI 12:00:00 NR -8.58 56.52
SI 15:00:00 NR -8.80 56.48
SI 18:00:00 NR -9.04 56.44
SI 21:00:00 NR -9.33 56.39
SI 1859-03-02 00:00:00 NR -9.66 56.33
SI 03:00:00 NR -10.04 56.27
SI 06:00:00 NR -10.50 56.20
SI 09:00:00 NR -11.03 56.12
SI 12:00:00 NR -11.62 56.03
SI 15:00:00 NR -12.24 55.94
SI 18:00:00 NR -12.90 55.84
SI 21:00:00 NR -13.56 55.75
SI 1859-03-03 00:00:00 NR -14.21 55.66
SI 03:00:00 NR -14.83 55.58
SI 06:00:00 NR -15.40 55.50
SI 09:00:00 NR -15.86 55.44
SI 12:00:00 NR -16.27 55.38
SI 15:00:00 NR -16.65 55.34
SI 18:00:00 NR -17.01 55.30
SI 21:00:00 NR -17.36 55.26
SI 1859-03-04 00:00:00 NR -17.70 55.24
SI 03:00:00 NR -18.04 55.22
SI 06:00:00 NR -18.40 55.20
SI 09:00:00 NR -18.79 55.16
SI 12:00:00 NR -19.19 55.12
SI 15:00:00 NR -19.60 55.09
SI 18:00:00 NR -20.02 55.08
SI 21:00:00 NR -20.44 55.07
SI 1859-03-05 00:00:00 NR -20.88 55.09
SI 03:00:00 NR -21.33 55.13
SI 06:00:00 NR -21.80 55.20
SI 09:00:00 NR -22.26 55.28
SI 12:00:00 NR -22.73 55.38
SI 15:00:00 NR -23.22 55.51
SI 18:00:00 NR -23.72 55.67
SI 21:00:00 NR -24.24 55.85
SI 1859-03-06 00:00:00 NR -24.77 56.07
SI 03:00:00 NR -25.33 56.32
SI 06:00:00 NR -25.90 56.60
SI 09:00:00 NR -26.58 56.96
SI 12:00:00 NR -27.29 57.36
SI 15:00:00 NR -28.00 57.79
SI 18:00:00 NR -28.71 58.24
SI 21:00:00 NR -29.39 58.68
SI 1859-03-07 00:00:00 NR -30.01 59.10
SI 03:00:00 NR -30.55 59.48
SI 06:00:00 NR -31.00 59.80
SI 09:00:00 NR -31.34 60.04
SI 12:00:00 NR -31.58 60.21
SI 15:00:00 NR -31.73 60.32
SI 18:00:00 NR -31.81 60.38
SI 21:00:00 NR -31.83 60.40
SI 1859-03-08 00:00:00 NR -31.81 60.38
SI 03:00:00 NR -31.76 60.35
SI 06:00:00 NR -31.70 60.30

Source Information

Agency Information
USA
TOKYO
CMA
HKO
NEWDELHI
REUNION WMO-Best-Tracks.txt:Line=199:xxxx859030
BOM
NADI
WELLINGTON
DS824
TD9636
TD9635
NEUMANN
MLC

All available IBTrACS Data

SEASON BASIN SUBBASIN ISO_TIME_________ NATURE LAT LON WMO AGENCY DIST2LAND LANDFALL IFLAG USA SSHS REUNION LAT REUNION LON REUNION TYPE REUNION TNUM STORM SPEED STORM DIR
Year degrees north degrees east km km 1 degrees north degrees east 1 kts degrees
1859 SI MM 1859-03-01 06:00:00 NR -8.20 56.60 reunion 906 895 _____O________ -1 -8.20 56.60 99 9.90 4 190
1859 SI MM 09:00:00 NR -8.39 56.56 895 873 _____P________ -1 -8.39 56.56 99 4 192
1859 SI MM 12:00:00 NR -8.58 56.52 873 860 _____P________ -1 -8.58 56.52 99 4 190
1859 SI MM 15:00:00 NR -8.80 56.48 860 839 _____P________ -1 -8.80 56.48 99 5 191
1859 SI MM 18:00:00 NR -9.04 56.44 839 821 _____P________ -1 -9.04 56.44 99 5 189
1859 SI MM 21:00:00 NR -9.33 56.39 821 795 _____P________ -1 -9.33 56.39 99 6 190
1859 SI MM 1859-03-02 00:00:00 NR -9.66 56.33 789 774 _____P________ -1 -9.66 56.33 99 7 189
1859 SI MM 03:00:00 NR -10.04 56.27 774 741 _____P________ -1 -10.04 56.27 99 9 189
1859 SI MM 06:00:00 NR -10.50 56.20 reunion 741 710 _____O________ -1 -10.50 56.20 99 9.90 10 189
1859 SI MM 09:00:00 NR -11.03 56.12 710 681 _____P________ -1 -11.03 56.12 99 11 188
1859 SI MM 12:00:00 NR -11.62 56.03 681 653 _____P________ -1 -11.62 56.03 99 12 188
1859 SI MM 15:00:00 NR -12.24 55.94 653 625 _____P________ -1 -12.24 55.94 99 13 188
1859 SI MM 18:00:00 NR -12.90 55.84 625 602 _____P________ -1 -12.90 55.84 99 13 188
1859 SI MM 21:00:00 NR -13.56 55.75 598 570 _____P________ -1 -13.56 55.75 99 13 188
1859 SI MM 1859-03-03 00:00:00 NR -14.21 55.66 570 549 _____P________ -1 -14.21 55.66 99 13 188
1859 SI MM 03:00:00 NR -14.83 55.58 549 536 _____P________ -1 -14.83 55.58 99 12 187
1859 SI MM 06:00:00 NR -15.40 55.50 reunion 536 525 _____O________ -1 -15.40 55.50 99 9.90 10 187
1859 SI MM 09:00:00 NR -15.86 55.44 519 489 _____P________ -1 -15.86 55.44 99 9 187
1859 SI MM 12:00:00 NR -16.27 55.38 479 455 _____P________ -1 -16.27 55.38 99 8 187
1859 SI MM 15:00:00 NR -16.65 55.34 445 417 _____P________ -1 -16.65 55.34 99 8 186
1859 SI MM 18:00:00 NR -17.01 55.30 417 389 _____P________ -1 -17.01 55.30 99 7 186
1859 SI MM 21:00:00 NR -17.36 55.26 380 361 _____P________ -1 -17.36 55.26 99 7 185
1859 SI MM 1859-03-04 00:00:00 NR -17.70 55.24 361 335 _____P________ -1 -17.70 55.24 99 7 183
1859 SI MM 03:00:00 NR -18.04 55.22 335 291 _____P________ -1 -18.04 55.22 99 7 183
1859 SI MM 06:00:00 NR -18.40 55.20 reunion 291 246 _____O________ -1 -18.40 55.20 99 9.90 8 185
1859 SI MM 09:00:00 NR -18.79 55.16 246 202 _____P________ -1 -18.79 55.16 99 8 185
1859 SI MM 12:00:00 NR -19.19 55.12 202 157 _____P________ -1 -19.19 55.12 99 8 184
1859 SI MM 15:00:00 NR -19.60 55.09 157 113 _____P________ -1 -19.60 55.09 99 8 182
1859 SI MM 18:00:00 NR -20.02 55.08 113 70 _____P________ -1 -20.02 55.08 99 8 0
1859 SI MM 21:00:00 NR -20.44 55.07 70 23 _____P________ -1 -20.44 55.07 99 9 180
1859 SI MM 1859-03-05 00:00:00 NR -20.88 55.09 23 10 _____P________ -1 -20.88 55.09 99 9 177
1859 SI MM 03:00:00 NR -21.33 55.13 20 20 _____P________ -1 -21.33 55.13 99 9 173
1859 SI MM 06:00:00 NR -21.80 55.20 reunion 56 56 _____O________ -1 -21.80 55.20 99 9.90 9 171
1859 SI MM 09:00:00 NR -22.26 55.28 105 105 _____P________ -1 -22.26 55.28 99 10 170
1859 SI MM 12:00:00 NR -22.73 55.38 146 146 _____P________ -1 -22.73 55.38 99 10 167
1859 SI MM 15:00:00 NR -23.22 55.51 201 201 _____P________ -1 -23.22 55.51 99 10 165
1859 SI MM 18:00:00 NR -23.72 55.67 257 257 _____P________ -1 -23.72 55.67 99 11 163
1859 SI MM 21:00:00 NR -24.24 55.85 314 314 _____P________ -1 -24.24 55.85 99 11 161
1859 SI MM 1859-03-06 00:00:00 NR -24.77 56.07 383 383 _____P________ -1 -24.77 56.07 99 12 159
1859 SI MM 03:00:00 NR -25.33 56.32 441 441 _____P________ -1 -25.33 56.32 99 12 157
1859 SI MM 06:00:00 NR -25.90 56.60 reunion 513 513 _____O________ -1 -25.90 56.60 99 9.90 14 155
1859 SI MM 09:00:00 NR -26.58 56.96 598 598 _____P________ -1 -26.58 56.96 99 16 154
1859 SI MM 12:00:00 NR -27.29 57.36 683 683 _____P________ -1 -27.29 57.36 99 16 152
1859 SI MM 15:00:00 NR -28.00 57.79 770 770 _____P________ -1 -28.00 57.79 99 16 151
1859 SI MM 18:00:00 NR -28.71 58.24 856 856 _____P________ -1 -28.71 58.24 99 16 151
1859 SI MM 21:00:00 NR -29.39 58.68 946 946 _____P________ -1 -29.39 58.68 99 15 150
1859 SI MM 1859-03-07 00:00:00 NR -30.01 59.10 1022 1022 _____P________ -1 -30.01 59.10 99 14 149
1859 SI MM 03:00:00 NR -30.55 59.48 1098 1098 _____P________ -1 -30.55 59.48 99 12 149
1859 SI MM 06:00:00 NR -31.00 59.80 reunion 1150 1150 _____O________ -1 -31.00 59.80 99 9.90 9 149
1859 SI MM 09:00:00 NR -31.34 60.04 1189 1189 _____P________ -1 -31.34 60.04 99 7 149
1859 SI MM 12:00:00 NR -31.58 60.21 1227 1227 _____P________ -1 -31.58 60.21 99 5 148
1859 SI MM 15:00:00 NR -31.73 60.32 1241 1241 _____P________ -1 -31.73 60.32 99 3 149
1859 SI MM 18:00:00 NR -31.81 60.38 1255 1255 _____P________ -1 -31.81 60.38 99 1 145
1859 SI MM 21:00:00 NR -31.83 60.40 1255 1255 _____P________ -1 -31.83 60.40 99 0 0
1859 SI MM 1859-03-08 00:00:00 NR -31.81 60.38 1255 1251 _____P________ -1 -31.81 60.38 99 1 331
1859 SI MM 03:00:00 NR -31.76 60.35 1251 1241 _____P________ -1 -31.76 60.35 99 1 329
1859 SI MM 06:00:00 NR -31.70 60.30 reunion 1241 _____O________ -1 -31.70 60.30 99 9.90 1 323